KSCD

Merkel Field Sylacauga Municipal Airport

Sylacauga, Alabama, USA
METAR KSCD 211955Z AUTO 16007KT 10SM CLR 22/08 A3015 RMK AO2 T02210084
Observed Flight Rules
Jan-21 @ 19:55 UTC (35 minutes ago) Visual Flight Rules
Wind Visibility Clouds
160° at 7 knots 10 miles
  • Clear skies
Temperatures Readings
Current 22°C / 72°F
Dewpoint 8°C / 46°F
Humidity 41%
Altimeter 30.15" Hg
Pressure 1021 hPa
Elevation 173
METAR KSCD 211955Z AUTO 16007KT 10SM CLR 22/08 A3015 RMK AO2 T02210084
Observed Flight Rules
Jan-21 @ 19:55 UTC
(35 minutes ago)
VFR
Wind Visibility
160° at 7 knots 10 miles
Clouds
  • Clear skies
Temperature Dewpoint
22°C / 72°F 8°C / 46°F
Humidity Altimeter Pressure
41% 30.15" Hg 1021 hPa